sensor_id;sensor_type;location;lat;lon;timestamp;temperature;humidity
63094;DHT22;49183;51.380;0.098;2024-03-02T00:00:21;2.80;90.30
63094;DHT22;49183;51.380;0.098;2024-03-02T00:02:52;2.70;90.40
63094;DHT22;49183;51.380;0.098;2024-03-02T00:05:21;2.70;90.50
63094;DHT22;49183;51.380;0.098;2024-03-02T00:07:56;2.60;90.60
63094;DHT22;49183;51.380;0.098;2024-03-02T00:10:26;2.60;90.60
63094;DHT22;49183;51.380;0.098;2024-03-02T00:12:59;2.60;90.70
63094;DHT22;49183;51.380;0.098;2024-03-02T00:17:58;2.60;90.70
63094;DHT22;49183;51.380;0.098;2024-03-02T00:20:27;2.60;90.70
63094;DHT22;49183;51.380;0.098;2024-03-02T00:23:02;2.60;90.70
63094;DHT22;49183;51.380;0.098;2024-03-02T00:33:08;2.70;90.60
63094;DHT22;49183;51.380;0.098;2024-03-02T00:35:36;2.70;90.60
63094;DHT22;49183;51.380;0.098;2024-03-02T00:38:07;2.80;90.50
63094;DHT22;49183;51.380;0.098;2024-03-02T00:40:35;2.80;90.50
63094;DHT22;49183;51.380;0.098;2024-03-02T00:43:03;2.80;90.50
63094;DHT22;49183;51.380;0.098;2024-03-02T00:45:32;2.90;90.50
63094;DHT22;49183;51.380;0.098;2024-03-02T00:48:01;2.80;90.50
63094;DHT22;49183;51.380;0.098;2024-03-02T00:50:28;2.90;90.40
63094;DHT22;49183;51.380;0.098;2024-03-02T00:52:57;2.90;90.30
63094;DHT22;49183;51.380;0.098;2024-03-02T00:55:25;2.90;90.30
63094;DHT22;49183;51.380;0.098;2024-03-02T00:57:52;2.90;90.30
63094;DHT22;49183;51.380;0.098;2024-03-02T01:00:21;2.80;90.30
63094;DHT22;49183;51.380;0.098;2024-03-02T01:02:48;2.80;90.30
63094;DHT22;49183;51.380;0.098;2024-03-02T01:05:18;2.80;90.30
63094;DHT22;49183;51.380;0.098;2024-03-02T01:07:45;2.80;90.40
63094;DHT22;49183;51.380;0.098;2024-03-02T01:10:13;2.80;90.40
63094;DHT22;49183;51.380;0.098;2024-03-02T01:12:41;2.80;90.40
63094;DHT22;49183;51.380;0.098;2024-03-02T01:15:10;2.80;90.40
63094;DHT22;49183;51.380;0.098;2024-03-02T01:17:38;2.80;90.40
63094;DHT22;49183;51.380;0.098;2024-03-02T01:20:07;2.80;90.40
63094;DHT22;49183;51.380;0.098;2024-03-02T01:22:35;2.80;90.40
63094;DHT22;49183;51.380;0.098;2024-03-02T01:25:03;2.80;90.40
63094;DHT22;49183;51.380;0.098;2024-03-02T01:27:31;2.80;90.40
63094;DHT22;49183;51.380;0.098;2024-03-02T01:29:58;2.80;90.40
63094;DHT22;49183;51.380;0.098;2024-03-02T01:32:27;2.80;90.40
63094;DHT22;49183;51.380;0.098;2024-03-02T01:34:55;2.80;90.40
63094;DHT22;49183;51.380;0.098;2024-03-02T01:37:23;2.80;90.40
63094;DHT22;49183;51.380;0.098;2024-03-02T01:39:52;2.80;90.40
63094;DHT22;49183;51.380;0.098;2024-03-02T01:42:20;2.80;90.40
63094;DHT22;49183;51.380;0.098;2024-03-02T01:44:48;2.80;90.40
63094;DHT22;49183;51.380;0.098;2024-03-02T01:47:16;2.90;90.40
63094;DHT22;49183;51.380;0.098;2024-03-02T01:49:44;2.80;90.40
63094;DHT22;49183;51.380;0.098;2024-03-02T01:52:14;2.90;90.40
63094;DHT22;49183;51.380;0.098;2024-03-02T01:54:42;2.90;90.40
63094;DHT22;49183;51.380;0.098;2024-03-02T01:57:11;2.90;90.40
63094;DHT22;49183;51.380;0.098;2024-03-02T01:59:39;2.90;90.40
63094;DHT22;49183;51.380;0.098;2024-03-02T02:02:07;2.90;90.30
63094;DHT22;49183;51.380;0.098;2024-03-02T02:04:36;2.90;90.30
63094;DHT22;49183;51.380;0.098;2024-03-02T02:07:03;3.00;90.30
63094;DHT22;49183;51.380;0.098;2024-03-02T02:09:32;2.90;90.20
63094;DHT22;49183;51.380;0.098;2024-03-02T02:11:59;2.90;90.30
63094;DHT22;49183;51.380;0.098;2024-03-02T02:14:27;2.90;90.30
63094;DHT22;49183;51.380;0.098;2024-03-02T02:16:56;2.90;90.30
63094;DHT22;49183;51.380;0.098;2024-03-02T02:19:23;2.90;90.30
63094;DHT22;49183;51.380;0.098;2024-03-02T02:21:51;2.90;90.30
63094;DHT22;49183;51.380;0.098;2024-03-02T02:24:20;2.90;90.40
63094;DHT22;49183;51.380;0.098;2024-03-02T02:26:48;2.90;90.40
63094;DHT22;49183;51.380;0.098;2024-03-02T02:29:16;2.90;90.40
63094;DHT22;49183;51.380;0.098;2024-03-02T02:31:44;2.90;90.40
63094;DHT22;49183;51.380;0.098;2024-03-02T02:34:13;2.90;90.50
63094;DHT22;49183;51.380;0.098;2024-03-02T02:36:41;2.90;90.50
63094;DHT22;49183;51.380;0.098;2024-03-02T02:39:11;2.90;90.50
63094;DHT22;49183;51.380;0.098;2024-03-02T02:41:41;2.90;90.50
63094;DHT22;49183;51.380;0.098;2024-03-02T02:44:10;2.90;90.60
63094;DHT22;49183;51.380;0.098;2024-03-02T02:46:40;2.90;90.60
63094;DHT22;49183;51.380;0.098;2024-03-02T02:49:08;2.90;90.70
63094;DHT22;49183;51.380;0.098;2024-03-02T02:51:38;2.90;90.70
63094;DHT22;49183;51.380;0.098;2024-03-02T02:54:06;2.90;90.80
63094;DHT22;49183;51.380;0.098;2024-03-02T02:56:34;2.80;90.80
63094;DHT22;49183;51.380;0.098;2024-03-02T02:59:01;2.80;90.80
63094;DHT22;49183;51.380;0.098;2024-03-02T03:01:29;2.80;90.90
63094;DHT22;49183;51.380;0.098;2024-03-02T03:03:58;2.70;91.00
63094;DHT22;49183;51.380;0.098;2024-03-02T03:06:27;2.70;91.10
63094;DHT22;49183;51.380;0.098;2024-03-02T03:08:55;2.70;91.20
63094;DHT22;49183;51.380;0.098;2024-03-02T03:11:23;2.70;91.30
63094;DHT22;49183;51.380;0.098;2024-03-02T03:13:53;2.60;91.40
63094;DHT22;49183;51.380;0.098;2024-03-02T03:16:22;2.70;91.50
63094;DHT22;49183;51.380;0.098;2024-03-02T03:18:50;2.70;91.50
63094;DHT22;49183;51.380;0.098;2024-03-02T03:21:19;2.70;91.60
63094;DHT22;49183;51.380;0.098;2024-03-02T03:23:47;2.70;91.60
63094;DHT22;49183;51.380;0.098;2024-03-02T03:26:15;2.80;91.70
63094;DHT22;49183;51.380;0.098;2024-03-02T03:28:43;2.70;91.70
63094;DHT22;49183;51.380;0.098;2024-03-02T03:31:11;2.70;91.70
63094;DHT22;49183;51.380;0.098;2024-03-02T03:33:39;2.80;91.70
63094;DHT22;49183;51.380;0.098;2024-03-02T03:36:07;2.80;91.70
63094;DHT22;49183;51.380;0.098;2024-03-02T03:38:34;2.80;91.70
63094;DHT22;49183;51.380;0.098;2024-03-02T03:41:02;2.80;91.70
63094;DHT22;49183;51.380;0.098;2024-03-02T03:43:30;2.80;91.70
63094;DHT22;49183;51.380;0.098;2024-03-02T03:45:58;2.80;91.60
63094;DHT22;49183;51.380;0.098;2024-03-02T03:48:26;2.80;91.60
63094;DHT22;49183;51.380;0.098;2024-03-02T03:50:58;2.80;91.60
63094;DHT22;49183;51.380;0.098;2024-03-02T03:53:25;2.80;91.70
63094;DHT22;49183;51.380;0.098;2024-03-02T03:55:53;2.80;91.70
63094;DHT22;49183;51.380;0.098;2024-03-02T03:58:21;2.80;91.70
63094;DHT22;49183;51.380;0.098;2024-03-02T04:00:49;2.80;91.70
63094;DHT22;49183;51.380;0.098;2024-03-02T04:03:17;2.80;91.70
63094;DHT22;49183;51.380;0.098;2024-03-02T04:05:45;2.80;91.70
63094;DHT22;49183;51.380;0.098;2024-03-02T04:08:13;2.80;91.60
63094;DHT22;49183;51.380;0.098;2024-03-02T04:10:40;2.80;91.60
63094;DHT22;49183;51.380;0.098;2024-03-02T04:13:09;2.80;91.60
63094;DHT22;49183;51.380;0.098;2024-03-02T04:15:37;2.90;91.60
63094;DHT22;49183;51.380;0.098;2024-03-02T04:18:05;2.90;91.60
63094;DHT22;49183;51.380;0.098;2024-03-02T04:20:33;2.90;91.60
63094;DHT22;49183;51.380;0.098;2024-03-02T04:23:01;2.90;91.50
63094;DHT22;49183;51.380;0.098;2024-03-02T04:25:29;2.90;91.50
63094;DHT22;49183;51.380;0.098;2024-03-02T04:27:58;2.90;91.50
63094;DHT22;49183;51.380;0.098;2024-03-02T04:30:26;2.90;91.60
63094;DHT22;49183;51.380;0.098;2024-03-02T04:32:54;2.90;91.60
63094;DHT22;49183;51.380;0.098;2024-03-02T04:35:22;2.90;91.60
63094;DHT22;49183;51.380;0.098;2024-03-02T04:37:50;2.90;91.60
63094;DHT22;49183;51.380;0.098;2024-03-02T04:40:18;2.90;91.60
63094;DHT22;49183;51.380;0.098;2024-03-02T04:42:46;2.90;91.60
63094;DHT22;49183;51.380;0.098;2024-03-02T04:45:14;2.90;91.70
63094;DHT22;49183;51.380;0.098;2024-03-02T04:47:41;2.90;91.70
63094;DHT22;49183;51.380;0.098;2024-03-02T04:50:12;2.90;91.70
63094;DHT22;49183;51.380;0.098;2024-03-02T04:52:40;2.90;91.70
63094;DHT22;49183;51.380;0.098;2024-03-02T04:55:08;2.80;91.70
63094;DHT22;49183;51.380;0.098;2024-03-02T04:57:55;2.90;91.60
63094;DHT22;49183;51.380;0.098;2024-03-02T05:00:23;2.90;91.70
63094;DHT22;49183;51.380;0.098;2024-03-02T05:02:51;2.90;91.60
63094;DHT22;49183;51.380;0.098;2024-03-02T05:05:19;2.90;91.50
63094;DHT22;49183;51.380;0.098;2024-03-02T05:07:47;2.90;91.50
63094;DHT22;49183;51.380;0.098;2024-03-02T05:10:14;2.90;91.50
63094;DHT22;49183;51.380;0.098;2024-03-02T05:12:42;2.90;91.40
63094;DHT22;49183;51.380;0.098;2024-03-02T05:15:10;3.00;91.40
63094;DHT22;49183;51.380;0.098;2024-03-02T05:17:39;2.90;91.40
63094;DHT22;49183;51.380;0.098;2024-03-02T05:20:07;3.00;91.40
63094;DHT22;49183;51.380;0.098;2024-03-02T05:22:36;2.90;91.30
63094;DHT22;49183;51.380;0.098;2024-03-02T05:25:04;3.00;91.30
63094;DHT22;49183;51.380;0.098;2024-03-02T05:27:34;3.00;91.30
63094;DHT22;49183;51.380;0.098;2024-03-02T05:30:02;2.90;91.20
63094;DHT22;49183;51.380;0.098;2024-03-02T05:32:30;2.90;91.20
63094;DHT22;49183;51.380;0.098;2024-03-02T05:34:58;3.00;91.10
63094;DHT22;49183;51.380;0.098;2024-03-02T05:37:26;3.00;91.00
63094;DHT22;49183;51.380;0.098;2024-03-02T05:39:54;2.90;91.00
63094;DHT22;49183;51.380;0.098;2024-03-02T05:42:22;2.90;90.90
63094;DHT22;49183;51.380;0.098;2024-03-02T05:44:50;2.90;90.90
63094;DHT22;49183;51.380;0.098;2024-03-02T05:47:18;2.90;90.90
63094;DHT22;49183;51.380;0.098;2024-03-02T05:49:45;2.90;90.90
63094;DHT22;49183;51.380;0.098;2024-03-02T05:52:13;2.80;91.00
63094;DHT22;49183;51.380;0.098;2024-03-02T05:54:40;2.80;91.00
63094;DHT22;49183;51.380;0.098;2024-03-02T05:57:08;2.80;91.00
63094;DHT22;49183;51.380;0.098;2024-03-02T05:59:59;2.80;91.10
63094;DHT22;49183;51.380;0.098;2024-03-02T06:02:27;2.80;91.20
63094;DHT22;49183;51.380;0.098;2024-03-02T06:04:55;2.80;91.20
63094;DHT22;49183;51.380;0.098;2024-03-02T06:07:23;2.80;91.30
63094;DHT22;49183;51.380;0.098;2024-03-02T06:09:51;2.80;91.30
63094;DHT22;49183;51.380;0.098;2024-03-02T06:12:20;2.80;91.30
63094;DHT22;49183;51.380;0.098;2024-03-02T06:14:47;2.80;91.30
63094;DHT22;49183;51.380;0.098;2024-03-02T06:17:16;2.80;91.30
63094;DHT22;49183;51.380;0.098;2024-03-02T06:19:43;2.80;91.30
63094;DHT22;49183;51.380;0.098;2024-03-02T06:22:12;2.80;91.30
63094;DHT22;49183;51.380;0.098;2024-03-02T06:24:39;2.80;91.30
63094;DHT22;49183;51.380;0.098;2024-03-02T06:27:08;2.80;91.30
63094;DHT22;49183;51.380;0.098;2024-03-02T06:29:37;2.70;91.30
63094;DHT22;49183;51.380;0.098;2024-03-02T06:32:05;2.70;91.30
63094;DHT22;49183;51.380;0.098;2024-03-02T06:34:34;2.70;91.40
63094;DHT22;49183;51.380;0.098;2024-03-02T06:37:02;2.70;91.50
63094;DHT22;49183;51.380;0.098;2024-03-02T06:39:30;2.60;91.60
63094;DHT22;49183;51.380;0.098;2024-03-02T06:42:01;2.60;91.80
63094;DHT22;49183;51.380;0.098;2024-03-02T06:44:29;2.60;91.90
63094;DHT22;49183;51.380;0.098;2024-03-02T06:46:57;2.70;92.00
63094;DHT22;49183;51.380;0.098;2024-03-02T06:49:25;2.60;92.00
63094;DHT22;49183;51.380;0.098;2024-03-02T06:51:53;2.70;92.00
63094;DHT22;49183;51.380;0.098;2024-03-02T06:54:21;2.70;92.10
63094;DHT22;49183;51.380;0.098;2024-03-02T06:56:49;2.70;92.20
63094;DHT22;49183;51.380;0.098;2024-03-02T06:59:17;2.70;92.20
63094;DHT22;49183;51.380;0.098;2024-03-02T07:01:44;2.70;92.20
63094;DHT22;49183;51.380;0.098;2024-03-02T07:04:12;2.80;92.20
63094;DHT22;49183;51.380;0.098;2024-03-02T07:06:40;2.80;92.20
63094;DHT22;49183;51.380;0.098;2024-03-02T07:09:08;2.80;92.20
63094;DHT22;49183;51.380;0.098;2024-03-02T07:11:38;2.80;92.30
63094;DHT22;49183;51.380;0.098;2024-03-02T07:14:06;2.80;92.20
63094;DHT22;49183;51.380;0.098;2024-03-02T07:16:37;2.80;92.20
63094;DHT22;49183;51.380;0.098;2024-03-02T07:19:06;2.80;92.20
63094;DHT22;49183;51.380;0.098;2024-03-02T07:21:34;2.90;92.10
63094;DHT22;49183;51.380;0.098;2024-03-02T07:24:02;2.80;92.10
63094;DHT22;49183;51.380;0.098;2024-03-02T07:26:30;2.80;92.10
63094;DHT22;49183;51.380;0.098;2024-03-02T07:29:01;2.80;92.10
63094;DHT22;49183;51.380;0.098;2024-03-02T07:31:30;2.80;92.10
63094;DHT22;49183;51.380;0.098;2024-03-02T07:33:57;2.70;92.20
63094;DHT22;49183;51.380;0.098;2024-03-02T07:36:25;2.70;92.30
63094;DHT22;49183;51.380;0.098;2024-03-02T07:38:53;2.70;92.40
63094;DHT22;49183;51.380;0.098;2024-03-02T07:41:22;2.70;92.40
63094;DHT22;49183;51.380;0.098;2024-03-02T07:43:51;2.70;92.50
63094;DHT22;49183;51.380;0.098;2024-03-02T07:46:20;2.70;92.60
63094;DHT22;49183;51.380;0.098;2024-03-02T07:48:48;2.70;92.60
63094;DHT22;49183;51.380;0.098;2024-03-02T07:51:19;2.70;92.60
63094;DHT22;49183;51.380;0.098;2024-03-02T07:53:47;2.60;92.70
63094;DHT22;49183;51.380;0.098;2024-03-02T07:56:16;2.60;92.70
63094;DHT22;49183;51.380;0.098;2024-03-02T07:58:49;2.70;92.70
63094;DHT22;49183;51.380;0.098;2024-03-02T08:01:18;2.60;92.80
63094;DHT22;49183;51.380;0.098;2024-03-02T08:03:47;2.60;92.80
63094;DHT22;49183;51.380;0.098;2024-03-02T08:06:18;2.60;92.80
63094;DHT22;49183;51.380;0.098;2024-03-02T08:08:49;2.60;92.80
63094;DHT22;49183;51.380;0.098;2024-03-02T08:11:16;2.60;92.90
63094;DHT22;49183;51.380;0.098;2024-03-02T08:13:45;2.60;92.90
63094;DHT22;49183;51.380;0.098;2024-03-02T08:16:14;2.60;93.00
63094;DHT22;49183;51.380;0.098;2024-03-02T08:18:47;2.60;93.00
63094;DHT22;49183;51.380;0.098;2024-03-02T08:21:15;2.60;93.10
63094;DHT22;49183;51.380;0.098;2024-03-02T08:23:43;2.60;93.00
63094;DHT22;49183;51.380;0.098;2024-03-02T08:26:12;2.60;93.10
63094;DHT22;49183;51.380;0.098;2024-03-02T08:28:40;2.60;93.00
63094;DHT22;49183;51.380;0.098;2024-03-02T08:31:08;2.60;93.00
63094;DHT22;49183;51.380;0.098;2024-03-02T08:33:36;2.50;93.10
63094;DHT22;49183;51.380;0.098;2024-03-02T08:36:05;2.50;93.10
63094;DHT22;49183;51.380;0.098;2024-03-02T08:38:33;2.50;93.20
63094;DHT22;49183;51.380;0.098;2024-03-02T08:41:01;2.60;93.20
63094;DHT22;49183;51.380;0.098;2024-03-02T08:43:29;2.50;93.20
63094;DHT22;49183;51.380;0.098;2024-03-02T08:45:56;2.60;93.20
63094;DHT22;49183;51.380;0.098;2024-03-02T08:48:24;2.60;93.20
63094;DHT22;49183;51.380;0.098;2024-03-02T08:50:52;2.50;93.20
63094;DHT22;49183;51.380;0.098;2024-03-02T08:53:20;2.50;93.30
63094;DHT22;49183;51.380;0.098;2024-03-02T08:55:48;2.60;93.30
63094;DHT22;49183;51.380;0.098;2024-03-02T08:58:16;2.60;93.30
63094;DHT22;49183;51.380;0.098;2024-03-02T09:00:45;2.60;93.30
63094;DHT22;49183;51.380;0.098;2024-03-02T09:03:14;2.50;93.30
63094;DHT22;49183;51.380;0.098;2024-03-02T09:05:42;2.50;93.30
63094;DHT22;49183;51.380;0.098;2024-03-02T09:08:10;2.40;93.20
63094;DHT22;49183;51.380;0.098;2024-03-02T09:10:39;2.40;93.10
63094;DHT22;49183;51.380;0.098;2024-03-02T09:13:07;2.30;93.10
63094;DHT22;49183;51.380;0.098;2024-03-02T09:15:35;2.20;93.20
63094;DHT22;49183;51.380;0.098;2024-03-02T09:18:06;2.10;93.30
63094;DHT22;49183;51.380;0.098;2024-03-02T09:20:34;2.10;93.40
63094;DHT22;49183;51.380;0.098;2024-03-02T09:23:03;2.10;93.50
63094;DHT22;49183;51.380;0.098;2024-03-02T09:25:31;2.10;93.50
63094;DHT22;49183;51.380;0.098;2024-03-02T09:28:00;2.10;93.60
63094;DHT22;49183;51.380;0.098;2024-03-02T09:30:28;2.20;93.60
63094;DHT22;49183;51.380;0.098;2024-03-02T09:32:57;2.20;93.60
63094;DHT22;49183;51.380;0.098;2024-03-02T09:35:44;2.30;93.60
63094;DHT22;49183;51.380;0.098;2024-03-02T09:38:13;2.30;93.60
63094;DHT22;49183;51.380;0.098;2024-03-02T09:40:41;2.30;93.60
63094;DHT22;49183;51.380;0.098;2024-03-02T09:43:10;2.40;93.60
63094;DHT22;49183;51.380;0.098;2024-03-02T09:45:39;2.40;93.70
63094;DHT22;49183;51.380;0.098;2024-03-02T09:48:07;2.50;93.60
63094;DHT22;49183;51.380;0.098;2024-03-02T09:50:36;2.50;93.60
63094;DHT22;49183;51.380;0.098;2024-03-02T09:53:04;2.50;93.60
63094;DHT22;49183;51.380;0.098;2024-03-02T09:55:32;2.60;93.70
63094;DHT22;49183;51.380;0.098;2024-03-02T09:58:00;2.70;93.70
63094;DHT22;49183;51.380;0.098;2024-03-02T10:00:28;2.70;93.70
63094;DHT22;49183;51.380;0.098;2024-03-02T10:02:56;2.80;93.70
63094;DHT22;49183;51.380;0.098;2024-03-02T10:05:26;2.90;93.80
63094;DHT22;49183;51.380;0.098;2024-03-02T10:08:00;2.90;93.80
63094;DHT22;49183;51.380;0.098;2024-03-02T10:10:38;3.00;93.80
63094;DHT22;49183;51.380;0.098;2024-03-02T10:13:13;3.00;93.80
63094;DHT22;49183;51.380;0.098;2024-03-02T10:15:42;3.10;93.80
63094;DHT22;49183;51.380;0.098;2024-03-02T10:18:10;3.10;93.80
63094;DHT22;49183;51.380;0.098;2024-03-02T10:20:40;3.10;93.80
63094;DHT22;49183;51.380;0.098;2024-03-02T10:23:10;3.10;93.80
63094;DHT22;49183;51.380;0.098;2024-03-02T10:25:41;3.20;93.90
63094;DHT22;49183;51.380;0.098;2024-03-02T10:28:25;3.30;93.90
63094;DHT22;49183;51.380;0.098;2024-03-02T10:30:57;3.40;94.00
63094;DHT22;49183;51.380;0.098;2024-03-02T10:33:28;3.50;93.90
63094;DHT22;49183;51.380;0.098;2024-03-02T10:35:58;3.60;93.90
63094;DHT22;49183;51.380;0.098;2024-03-02T10:38:29;3.60;93.80
63094;DHT22;49183;51.380;0.098;2024-03-02T10:41:00;3.70;93.80
63094;DHT22;49183;51.380;0.098;2024-03-02T10:43:33;3.80;93.90
63094;DHT22;49183;51.380;0.098;2024-03-02T10:46:04;3.80;93.80
63094;DHT22;49183;51.380;0.098;2024-03-02T10:48:35;3.90;93.80
63094;DHT22;49183;51.380;0.098;2024-03-02T10:51:05;4.00;93.80
63094;DHT22;49183;51.380;0.098;2024-03-02T10:53:37;4.00;93.70
63094;DHT22;49183;51.380;0.098;2024-03-02T10:56:08;4.00;93.70
63094;DHT22;49183;51.380;0.098;2024-03-02T10:58:39;4.10;93.50
63094;DHT22;49183;51.380;0.098;2024-03-02T11:01:10;4.10;93.60
63094;DHT22;49183;51.380;0.098;2024-03-02T11:03:41;4.10;93.60
63094;DHT22;49183;51.380;0.098;2024-03-02T11:06:13;4.20;93.70
63094;DHT22;49183;51.380;0.098;2024-03-02T11:08:44;4.20;93.70
63094;DHT22;49183;51.380;0.098;2024-03-02T11:11:19;4.30;93.70
63094;DHT22;49183;51.380;0.098;2024-03-02T11:13:49;4.40;93.70
63094;DHT22;49183;51.380;0.098;2024-03-02T11:19:06;4.40;93.40
63094;DHT22;49183;51.380;0.098;2024-03-02T11:21:40;4.30;93.40
63094;DHT22;49183;51.380;0.098;2024-03-02T11:26:47;4.40;93.50
63094;DHT22;49183;51.380;0.098;2024-03-02T11:32:05;4.40;93.60
63094;DHT22;49183;51.380;0.098;2024-03-02T11:34:36;4.40;93.70
63094;DHT22;49183;51.380;0.098;2024-03-02T11:37:07;4.50;93.70
63094;DHT22;49183;51.380;0.098;2024-03-02T11:39:36;4.60;93.60
63094;DHT22;49183;51.380;0.098;2024-03-02T11:42:07;4.50;93.50
63094;DHT22;49183;51.380;0.098;2024-03-02T11:44:38;4.50;93.50
63094;DHT22;49183;51.380;0.098;2024-03-02T11:47:08;4.50;93.50
63094;DHT22;49183;51.380;0.098;2024-03-02T11:49:38;4.50;93.60
63094;DHT22;49183;51.380;0.098;2024-03-02T11:52:10;4.60;93.70
63094;DHT22;49183;51.380;0.098;2024-03-02T11:54:42;4.70;93.90
63094;DHT22;49183;51.380;0.098;2024-03-02T11:57:18;4.90;94.00
63094;DHT22;49183;51.380;0.098;2024-03-02T11:59:51;5.10;94.10
63094;DHT22;49183;51.380;0.098;2024-03-02T12:02:23;5.30;94.10
63094;DHT22;49183;51.380;0.098;2024-03-02T12:04:55;5.40;94.10
63094;DHT22;49183;51.380;0.098;2024-03-02T12:07:29;5.60;93.80
63094;DHT22;49183;51.380;0.098;2024-03-02T12:10:03;5.60;93.60
63094;DHT22;49183;51.380;0.098;2024-03-02T12:12:37;5.80;93.50
63094;DHT22;49183;51.380;0.098;2024-03-02T12:15:09;6.00;93.40
63094;DHT22;49183;51.380;0.098;2024-03-02T12:17:41;6.10;93.30
63094;DHT22;49183;51.380;0.098;2024-03-02T12:20:13;6.30;93.20
63094;DHT22;49183;51.380;0.098;2024-03-02T12:22:45;6.40;93.10
63094;DHT22;49183;51.380;0.098;2024-03-02T12:25:16;6.60;92.90
63094;DHT22;49183;51.380;0.098;2024-03-02T12:27:47;6.80;92.70
63094;DHT22;49183;51.380;0.098;2024-03-02T12:30:18;6.80;92.30
63094;DHT22;49183;51.380;0.098;2024-03-02T12:32:49;6.80;92.20
63094;DHT22;49183;51.380;0.098;2024-03-02T12:35:20;6.80;91.90
63094;DHT22;49183;51.380;0.098;2024-03-02T12:37:52;6.90;91.70
63094;DHT22;49183;51.380;0.098;2024-03-02T12:40:24;6.90;91.40
63094;DHT22;49183;51.380;0.098;2024-03-02T12:42:56;6.90;91.30
63094;DHT22;49183;51.380;0.098;2024-03-02T12:45:28;6.90;90.80
63094;DHT22;49183;51.380;0.098;2024-03-02T12:48:00;6.90;90.30
63094;DHT22;49183;51.380;0.098;2024-03-02T12:50:33;6.90;90.10
63094;DHT22;49183;51.380;0.098;2024-03-02T12:53:05;6.90;89.90
63094;DHT22;49183;51.380;0.098;2024-03-02T12:55:37;7.00;89.70
63094;DHT22;49183;51.380;0.098;2024-03-02T12:58:19;7.10;89.70
63094;DHT22;49183;51.380;0.098;2024-03-02T13:01:07;7.30;89.70
63094;DHT22;49183;51.380;0.098;2024-03-02T13:03:41;7.50;89.70
63094;DHT22;49183;51.380;0.098;2024-03-02T13:06:11;7.70;88.80
63094;DHT22;49183;51.380;0.098;2024-03-02T13:08:41;7.70;88.40
63094;DHT22;49183;51.380;0.098;2024-03-02T13:11:13;7.60;88.40
63094;DHT22;49183;51.380;0.098;2024-03-02T13:13:43;7.50;88.30
63094;DHT22;49183;51.380;0.098;2024-03-02T13:16:11;7.50;88.20
63094;DHT22;49183;51.380;0.098;2024-03-02T13:18:40;7.40;88.30
63094;DHT22;49183;51.380;0.098;2024-03-02T13:21:08;7.40;88.40
63094;DHT22;49183;51.380;0.098;2024-03-02T13:23:37;7.30;88.50
63094;DHT22;49183;51.380;0.098;2024-03-02T13:26:08;7.30;88.70
63094;DHT22;49183;51.380;0.098;2024-03-02T13:28:42;7.10;88.80
63094;DHT22;49183;51.380;0.098;2024-03-02T13:31:17;7.10;88.90
63094;DHT22;49183;51.380;0.098;2024-03-02T13:33:58;7.10;88.80
63094;DHT22;49183;51.380;0.098;2024-03-02T13:36:33;7.10;88.60
63094;DHT22;49183;51.380;0.098;2024-03-02T13:39:07;7.20;88.30
63094;DHT22;49183;51.380;0.098;2024-03-02T13:41:43;7.20;88.10
63094;DHT22;49183;51.380;0.098;2024-03-02T13:44:25;7.30;87.90
63094;DHT22;49183;51.380;0.098;2024-03-02T13:47:05;7.30;87.90
63094;DHT22;49183;51.380;0.098;2024-03-02T13:49:39;7.40;87.40
63094;DHT22;49183;51.380;0.098;2024-03-02T13:52:14;7.40;87.20
63094;DHT22;49183;51.380;0.098;2024-03-02T13:54:52;7.40;86.80
63094;DHT22;49183;51.380;0.098;2024-03-02T13:57:34;7.30;86.80
63094;DHT22;49183;51.380;0.098;2024-03-02T14:00:12;7.40;86.90
63094;DHT22;49183;51.380;0.098;2024-03-02T14:02:48;7.50;86.50
63094;DHT22;49183;51.380;0.098;2024-03-02T14:05:34;7.60;85.30
63094;DHT22;49183;51.380;0.098;2024-03-02T14:08:12;7.70;84.50
63094;DHT22;49183;51.380;0.098;2024-03-02T14:10:49;7.70;83.90
63094;DHT22;49183;51.380;0.098;2024-03-02T14:13:24;7.80;83.70
63094;DHT22;49183;51.380;0.098;2024-03-02T14:16:00;7.80;83.00
63094;DHT22;49183;51.380;0.098;2024-03-02T14:18:35;7.80;83.00
63094;DHT22;49183;51.380;0.098;2024-03-02T14:21:09;7.90;82.60
63094;DHT22;49183;51.380;0.098;2024-03-02T14:23:43;7.90;82.80
63094;DHT22;49183;51.380;0.098;2024-03-02T14:26:18;7.90;82.70
63094;DHT22;49183;51.380;0.098;2024-03-02T14:28:52;7.90;82.70
63094;DHT22;49183;51.380;0.098;2024-03-02T14:31:28;7.90;82.60
63094;DHT22;49183;51.380;0.098;2024-03-02T14:34:04;7.80;82.00
63094;DHT22;49183;51.380;0.098;2024-03-02T14:36:37;7.80;82.20
63094;DHT22;49183;51.380;0.098;2024-03-02T14:39:10;7.70;82.00
63094;DHT22;49183;51.380;0.098;2024-03-02T14:41:44;7.50;81.90
63094;DHT22;49183;51.380;0.098;2024-03-02T14:44:16;7.40;81.20
63094;DHT22;49183;51.380;0.098;2024-03-02T14:47:08;7.20;81.10
63094;DHT22;49183;51.380;0.098;2024-03-02T14:49:50;6.90;80.90
63094;DHT22;49183;51.380;0.098;2024-03-02T14:52:39;6.90;81.50
63094;DHT22;49183;51.380;0.098;2024-03-02T14:55:16;6.90;82.00
63094;DHT22;49183;51.380;0.098;2024-03-02T14:57:52;6.80;81.60
63094;DHT22;49183;51.380;0.098;2024-03-02T15:00:30;6.70;81.30
63094;DHT22;49183;51.380;0.098;2024-03-02T15:03:07;6.60;81.20
63094;DHT22;49183;51.380;0.098;2024-03-02T15:05:53;6.50;81.10
63094;DHT22;49183;51.380;0.098;2024-03-02T15:08:35;6.60;81.30
63094;DHT22;49183;51.380;0.098;2024-03-02T15:11:16;6.60;81.00
63094;DHT22;49183;51.380;0.098;2024-03-02T15:13:51;6.60;80.90
63094;DHT22;49183;51.380;0.098;2024-03-02T15:16:25;6.50;81.10
63094;DHT22;49183;51.380;0.098;2024-03-02T15:18:56;6.50;81.30
63094;DHT22;49183;51.380;0.098;2024-03-02T15:21:28;6.40;81.10
63094;DHT22;49183;51.380;0.098;2024-03-02T15:23:59;6.40;81.10
63094;DHT22;49183;51.380;0.098;2024-03-02T15:26:32;6.30;81.20
63094;DHT22;49183;51.380;0.098;2024-03-02T15:29:08;6.30;80.70
63094;DHT22;49183;51.380;0.098;2024-03-02T15:31:41;6.20;80.50
63094;DHT22;49183;51.380;0.098;2024-03-02T15:34:15;6.20;80.40
63094;DHT22;49183;51.380;0.098;2024-03-02T15:36:50;6.30;80.60
63094;DHT22;49183;51.380;0.098;2024-03-02T15:39:29;6.30;80.70
63094;DHT22;49183;51.380;0.098;2024-03-02T15:42:03;6.30;80.60
63094;DHT22;49183;51.380;0.098;2024-03-02T15:44:35;6.20;80.50
63094;DHT22;49183;51.380;0.098;2024-03-02T15:47:09;6.10;80.30
63094;DHT22;49183;51.380;0.098;2024-03-02T15:49:41;6.10;80.30
63094;DHT22;49183;51.380;0.098;2024-03-02T15:52:12;6.00;80.50
63094;DHT22;49183;51.380;0.098;2024-03-02T15:54:44;6.00;80.50
63094;DHT22;49183;51.380;0.098;2024-03-02T15:57:12;5.90;80.70
63094;DHT22;49183;51.380;0.098;2024-03-02T15:59:40;5.90;80.80
63094;DHT22;49183;51.380;0.098;2024-03-02T16:02:10;5.90;81.00
63094;DHT22;49183;51.380;0.098;2024-03-02T16:04:38;5.80;81.20
63094;DHT22;49183;51.380;0.098;2024-03-02T16:07:06;5.80;81.30
63094;DHT22;49183;51.380;0.098;2024-03-02T16:09:34;5.80;81.40
63094;DHT22;49183;51.380;0.098;2024-03-02T16:12:01;5.70;81.40
63094;DHT22;49183;51.380;0.098;2024-03-02T16:14:31;5.70;81.50
63094;DHT22;49183;51.380;0.098;2024-03-02T16:16:59;5.60;81.70
63094;DHT22;49183;51.380;0.098;2024-03-02T16:19:26;5.60;81.80
63094;DHT22;49183;51.380;0.098;2024-03-02T16:22:00;5.50;82.00